createdAt,value
2017-12-17T00:00:55.935Z,1.20
2017-12-17T00:03:23.490Z,1.20
2017-12-17T00:05:51.053Z,1.30
2017-12-17T00:08:18.628Z,1.20
2017-12-17T00:10:46.944Z,1.20
2017-12-17T00:13:14.497Z,1.20
2017-12-17T00:15:42.067Z,1.20
2017-12-17T00:18:09.623Z,1.10
2017-12-17T00:20:37.197Z,1.10
2017-12-17T00:23:04.763Z,1.10
2017-12-17T00:25:32.340Z,1.10
2017-12-17T00:27:59.906Z,1.10
2017-12-17T00:30:27.475Z,1.10
2017-12-17T00:32:55.024Z,1.10
2017-12-17T00:35:22.574Z,1.20
2017-12-17T00:37:50.162Z,1.20
2017-12-17T00:40:17.719Z,1.20
2017-12-17T00:42:45.296Z,1.10
2017-12-17T00:45:13.650Z,1.10
2017-12-17T00:47:41.209Z,1.10
2017-12-17T00:50:08.756Z,1.10
2017-12-17T00:52:36.334Z,1.10
2017-12-17T00:55:03.875Z,1.10
2017-12-17T00:57:32.217Z,1.10
2017-12-17T00:59:59.787Z,1.10
2017-12-17T01:02:27.333Z,1.20
2017-12-17T01:04:55.666Z,1.20
2017-12-17T01:07:23.252Z,1.20
2017-12-17T01:09:51.582Z,1.20
2017-12-17T01:12:19.148Z,1.20
2017-12-17T01:14:46.721Z,1.20
2017-12-17T01:17:14.265Z,1.20
2017-12-17T01:19:41.824Z,1.20
2017-12-17T01:22:09.408Z,1.20
2017-12-17T01:24:37.725Z,1.20
2017-12-17T01:27:05.290Z,1.20
2017-12-17T01:29:32.861Z,1.20
2017-12-17T01:32:00.410Z,1.20
2017-12-17T01:34:27.954Z,1.20
2017-12-17T01:36:55.538Z,1.20
2017-12-17T01:39:23.118Z,1.20
2017-12-17T01:41:50.669Z,1.20
2017-12-17T01:44:18.262Z,1.20
2017-12-17T01:46:45.845Z,1.20
2017-12-17T01:49:13.397Z,1.20
2017-12-17T01:51:41.730Z,1.20
2017-12-17T01:54:09.306Z,1.20
2017-12-17T01:56:36.860Z,1.20
2017-12-17T01:59:04.440Z,1.20
2017-12-17T02:01:32.786Z,1.10
2017-12-17T02:04:00.327Z,1.10
2017-12-17T02:06:27.909Z,1.10
2017-12-17T02:08:55.465Z,1.20
2017-12-17T02:11:23.013Z,1.20
2017-12-17T02:13:50.609Z,1.20
2017-12-17T02:16:18.161Z,1.10
2017-12-17T02:18:45.742Z,1.20
2017-12-17T02:21:14.101Z,1.20
2017-12-17T02:23:41.653Z,1.10
2017-12-17T02:26:09.224Z,1.20
2017-12-17T02:28:36.805Z,1.10
2017-12-17T02:31:05.134Z,1.10
2017-12-17T02:33:32.701Z,1.10
2017-12-17T02:36:00.263Z,1.10
2017-12-17T02:38:27.808Z,1.10
2017-12-17T02:40:55.384Z,1.10
2017-12-17T02:43:22.992Z,1.10
2017-12-17T02:45:50.543Z,1.10
2017-12-17T02:48:18.872Z,1.10
2017-12-17T02:50:46.446Z,1.10
2017-12-17T02:53:13.993Z,1.10
2017-12-17T02:55:41.541Z,1.10
2017-12-17T02:58:09.108Z,1.10
2017-12-17T03:00:36.663Z,1.10
2017-12-17T03:03:04.217Z,1.10
2017-12-17T03:05:31.809Z,1.10
2017-12-17T03:07:59.366Z,1.10
2017-12-17T03:10:26.923Z,1.10
2017-12-17T03:12:54.488Z,1.00
2017-12-17T03:15:22.023Z,1.00
2017-12-17T03:17:49.596Z,1.00
2017-12-17T03:20:17.177Z,1.00
2017-12-17T03:22:44.744Z,1.00
2017-12-17T03:25:13.080Z,1.00
2017-12-17T03:27:40.656Z,1.00
2017-12-17T03:30:08.196Z,1.00
2017-12-17T03:32:35.801Z,1.00
2017-12-17T03:35:04.139Z,0.90
2017-12-17T03:37:31.690Z,0.90
2017-12-17T03:39:59.254Z,0.90
2017-12-17T03:42:26.854Z,0.90
2017-12-17T03:44:55.168Z,0.90
2017-12-17T03:47:22.752Z,0.90
2017-12-17T03:49:50.337Z,0.90
2017-12-17T03:52:17.879Z,0.90
2017-12-17T03:54:45.428Z,0.90
2017-12-17T03:57:13.009Z,0.90
2017-12-17T03:59:40.590Z,0.90
2017-12-17T04:02:08.937Z,0.90
2017-12-17T04:04:36.513Z,0.90
2017-12-17T04:07:04.068Z,0.90
2017-12-17T04:09:31.615Z,0.90
2017-12-17T04:11:59.955Z,0.90
2017-12-17T04:14:28.279Z,0.90
2017-12-17T04:16:55.838Z,0.90
2017-12-17T04:19:23.434Z,0.90
2017-12-17T04:21:50.999Z,0.90
2017-12-17T04:24:18.556Z,0.80
2017-12-17T04:26:46.901Z,0.80
2017-12-17T04:29:14.488Z,0.80
2017-12-17T04:31:42.841Z,0.80
2017-12-17T04:34:10.434Z,0.80
2017-12-17T04:36:38.004Z,0.80
2017-12-17T04:39:05.575Z,0.80
2017-12-17T04:41:33.162Z,0.80
2017-12-17T04:44:00.729Z,0.80
2017-12-17T04:46:28.272Z,0.80
2017-12-17T04:48:55.848Z,0.70
2017-12-17T04:51:23.400Z,0.80
2017-12-17T04:53:50.946Z,0.70
2017-12-17T04:56:18.533Z,0.70
2017-12-17T04:58:46.087Z,0.80
2017-12-17T05:01:13.638Z,0.80
2017-12-17T05:03:41.224Z,0.70
2017-12-17T05:06:08.765Z,0.70
2017-12-17T05:08:36.330Z,0.80
2017-12-17T05:11:03.916Z,0.80
2017-12-17T05:13:32.226Z,0.80
2017-12-17T05:15:59.791Z,0.80
2017-12-17T05:18:27.365Z,0.80
2017-12-17T05:20:54.925Z,0.80
2017-12-17T05:23:22.482Z,0.80
2017-12-17T05:25:50.060Z,0.80
2017-12-17T05:28:17.622Z,0.80
2017-12-17T05:30:45.172Z,0.80
2017-12-17T05:33:12.773Z,0.80
2017-12-17T05:35:41.126Z,0.80
2017-12-17T05:38:08.683Z,0.80
2017-12-17T05:40:36.248Z,0.80
2017-12-17T05:43:03.822Z,0.80
2017-12-17T05:45:32.149Z,0.80
2017-12-17T05:47:59.717Z,0.80
2017-12-17T05:50:27.290Z,0.80
2017-12-17T05:52:54.842Z,0.80
2017-12-17T05:55:22.449Z,0.80
2017-12-17T05:57:50.786Z,0.80
2017-12-17T06:00:18.331Z,0.80
2017-12-17T06:02:45.900Z,0.80
2017-12-17T06:05:13.453Z,0.80
2017-12-17T06:07:41.009Z,0.80
2017-12-17T06:10:08.584Z,0.80
2017-12-17T06:12:36.130Z,0.80
2017-12-17T06:15:03.714Z,0.80
2017-12-17T06:17:31.307Z,0.80
2017-12-17T06:19:59.641Z,0.80
2017-12-17T06:22:27.213Z,0.80
2017-12-17T06:24:54.813Z,0.80
2017-12-17T06:27:22.363Z,0.80
2017-12-17T06:29:50.676Z,0.80
2017-12-17T06:32:18.240Z,0.80
2017-12-17T06:34:45.798Z,0.80
2017-12-17T06:37:13.378Z,0.80
2017-12-17T06:39:40.959Z,0.80
2017-12-17T06:42:08.515Z,0.80
2017-12-17T06:44:36.060Z,0.80
2017-12-17T06:47:03.624Z,0.90
2017-12-17T06:49:31.196Z,0.80
2017-12-17T06:51:58.736Z,0.90
2017-12-17T06:54:26.331Z,0.90
2017-12-17T06:56:54.675Z,0.90
2017-12-17T06:59:22.220Z,0.80
2017-12-17T07:01:49.798Z,0.90
2017-12-17T07:04:17.356Z,0.90
2017-12-17T07:06:44.915Z,0.80
2017-12-17T07:09:12.505Z,0.80
2017-12-17T07:11:40.864Z,0.80
2017-12-17T07:14:08.412Z,0.80
2017-12-17T07:16:35.993Z,0.80
2017-12-17T07:19:03.544Z,0.80
2017-12-17T07:21:31.098Z,0.80
2017-12-17T07:23:58.700Z,0.80
2017-12-17T07:26:26.273Z,0.80
2017-12-17T07:28:53.837Z,0.80
2017-12-17T07:31:21.451Z,0.80
2017-12-17T07:33:49.010Z,0.80
2017-12-17T07:36:16.599Z,0.80
2017-12-17T07:38:44.174Z,0.80
2017-12-17T07:41:11.714Z,0.80
2017-12-17T07:43:40.053Z,0.80
2017-12-17T07:46:07.628Z,0.80
2017-12-17T07:48:35.179Z,0.80
2017-12-17T07:51:02.752Z,0.80
2017-12-17T07:53:31.082Z,0.90
2017-12-17T07:55:58.650Z,0.80
2017-12-17T07:58:26.219Z,0.90
2017-12-17T08:00:53.799Z,0.90
2017-12-17T08:03:21.358Z,0.90
2017-12-17T08:05:48.913Z,0.90
2017-12-17T08:08:16.506Z,0.90
2017-12-17T08:10:44.086Z,0.90
2017-12-17T08:13:11.660Z,1.00
2017-12-17T08:15:39.242Z,1.00
2017-12-17T08:18:06.809Z,1.00
2017-12-17T08:20:34.382Z,1.00
2017-12-17T08:23:02.758Z,1.00
2017-12-17T08:25:30.312Z,1.00
2017-12-17T08:27:57.871Z,1.10
2017-12-17T08:30:25.469Z,1.10
2017-12-17T08:32:53.015Z,1.10
2017-12-17T08:35:21.339Z,1.20
2017-12-17T08:37:48.958Z,1.20
2017-12-17T08:40:16.556Z,1.20
2017-12-17T08:42:44.116Z,1.20
2017-12-17T08:45:11.712Z,1.20
2017-12-17T08:47:39.288Z,1.30
2017-12-17T08:50:07.606Z,1.30
2017-12-17T08:52:35.183Z,1.30
2017-12-17T08:55:02.747Z,1.30
2017-12-17T08:57:30.296Z,1.30
2017-12-17T08:59:57.886Z,1.30
2017-12-17T09:02:25.450Z,1.30
2017-12-17T09:04:53.015Z,1.30
2017-12-17T09:07:20.646Z,1.30
2017-12-17T09:09:48.198Z,1.30
2017-12-17T09:12:15.748Z,1.30
2017-12-17T09:14:43.350Z,1.30
2017-12-17T09:17:10.915Z,1.30
2017-12-17T09:19:39.241Z,1.40
2017-12-17T09:22:06.827Z,1.30
2017-12-17T09:24:35.137Z,1.40
2017-12-17T09:27:03.492Z,1.40
2017-12-17T09:29:31.079Z,1.30
2017-12-17T09:31:59.422Z,1.40
2017-12-17T09:34:26.986Z,1.40
2017-12-17T09:36:54.585Z,1.40
2017-12-17T09:39:22.912Z,1.30
2017-12-17T09:41:50.463Z,1.30
2017-12-17T09:44:18.032Z,1.30
2017-12-17T09:46:46.352Z,1.40
2017-12-17T09:49:14.665Z,1.40
2017-12-17T09:51:42.261Z,1.40
2017-12-17T09:54:09.823Z,1.50
2017-12-17T09:56:37.373Z,1.40
2017-12-17T09:59:04.964Z,1.50
2017-12-17T10:01:33.303Z,1.60
2017-12-17T10:04:00.872Z,1.50
2017-12-17T10:06:28.451Z,1.60
2017-12-17T10:08:56.016Z,1.60
2017-12-17T10:11:24.325Z,1.60
2017-12-17T10:13:51.905Z,1.60
2017-12-17T10:16:19.490Z,1.60
2017-12-17T10:18:47.049Z,1.70
2017-12-17T10:21:14.646Z,1.60
2017-12-17T10:23:42.980Z,1.60
2017-12-17T10:26:10.521Z,1.60
2017-12-17T10:28:38.096Z,1.70
2017-12-17T10:31:05.657Z,1.70
2017-12-17T10:33:33.199Z,1.70
2017-12-17T10:36:00.802Z,1.70
2017-12-17T10:38:28.368Z,1.80
2017-12-17T10:40:56.695Z,1.80
2017-12-17T10:43:24.301Z,1.80
2017-12-17T10:45:51.870Z,1.90
2017-12-17T10:48:20.194Z,1.90
2017-12-17T10:50:47.779Z,1.80
2017-12-17T10:53:15.328Z,1.90
2017-12-17T10:55:42.868Z,1.80
2017-12-17T10:58:10.432Z,1.80
2017-12-17T11:00:37.986Z,1.80
2017-12-17T11:03:05.536Z,1.80
2017-12-17T11:05:33.131Z,1.80
2017-12-17T11:08:00.686Z,1.80
2017-12-17T11:10:28.231Z,1.70
2017-12-17T11:12:55.809Z,1.70
2017-12-17T11:15:23.375Z,1.70
2017-12-17T11:17:50.917Z,1.70
2017-12-17T11:20:18.504Z,1.80
2017-12-17T11:22:46.060Z,1.80
2017-12-17T11:25:13.609Z,1.80
2017-12-17T11:27:41.198Z,1.80
2017-12-17T11:30:09.525Z,1.80
2017-12-17T11:32:37.072Z,1.80
2017-12-17T11:35:04.660Z,1.80
2017-12-17T11:37:32.217Z,1.80
2017-12-17T11:39:59.763Z,1.80
2017-12-17T11:42:27.336Z,1.80
2017-12-17T11:44:54.897Z,1.70
2017-12-17T11:47:22.449Z,1.80
2017-12-17T11:49:50.017Z,1.80
2017-12-17T11:52:17.588Z,1.70
2017-12-17T11:54:45.142Z,1.70
2017-12-17T11:57:12.725Z,1.70
2017-12-17T11:59:40.329Z,1.70
2017-12-17T12:02:07.871Z,1.70
2017-12-17T12:04:35.436Z,1.70
2017-12-17T12:07:02.988Z,1.70
2017-12-17T12:09:31.335Z,1.70
2017-12-17T12:11:58.945Z,1.60
2017-12-17T12:14:26.483Z,1.70
2017-12-17T12:16:54.046Z,1.70
2017-12-17T12:19:21.626Z,1.70
2017-12-17T12:21:49.196Z,1.70
2017-12-17T12:24:16.736Z,1.70
2017-12-17T12:26:44.308Z,1.70
2017-12-17T12:29:11.851Z,1.70
2017-12-17T12:31:39.400Z,1.70
2017-12-17T12:34:06.980Z,1.70
2017-12-17T12:36:34.537Z,1.70
2017-12-17T12:39:02.111Z,1.70
2017-12-17T12:41:29.671Z,1.70
2017-12-17T12:43:57.212Z,1.70
2017-12-17T12:46:24.762Z,1.70
2017-12-17T12:48:52.338Z,1.70
2017-12-17T12:51:19.907Z,1.70
2017-12-17T12:53:47.462Z,1.70
2017-12-17T12:56:15.048Z,1.60
2017-12-17T12:58:42.629Z,1.50
2017-12-17T13:01:10.181Z,1.50
2017-12-17T13:03:37.760Z,1.50
2017-12-17T13:06:06.108Z,1.40
2017-12-17T13:08:33.653Z,1.40
2017-12-17T13:11:01.231Z,1.40
2017-12-17T13:13:28.793Z,1.40
2017-12-17T13:15:56.372Z,1.40
2017-12-17T13:18:24.733Z,1.30
2017-12-17T13:20:52.280Z,1.30
2017-12-17T13:23:19.821Z,1.30
2017-12-17T13:25:47.398Z,1.30
2017-12-17T13:28:14.945Z,1.30
2017-12-17T13:30:42.500Z,1.30
2017-12-17T13:33:10.082Z,1.30
2017-12-17T13:35:37.631Z,1.30
2017-12-17T13:38:05.185Z,1.30
2017-12-17T13:40:32.752Z,1.30
2017-12-17T13:43:00.321Z,1.30
2017-12-17T13:45:27.872Z,1.30
2017-12-17T13:47:55.441Z,1.20
2017-12-17T13:50:22.991Z,1.20
2017-12-17T13:52:50.553Z,1.20
2017-12-17T13:55:18.158Z,1.20
2017-12-17T13:57:46.475Z,1.20
2017-12-17T14:00:14.034Z,1.20
2017-12-17T14:02:41.630Z,1.20
2017-12-17T14:05:09.181Z,1.10
2017-12-17T14:07:36.728Z,1.10
2017-12-17T14:10:04.293Z,1.10
2017-12-17T14:12:31.843Z,1.10
2017-12-17T14:14:59.414Z,1.10
2017-12-17T14:17:27.000Z,1.10
2017-12-17T14:19:56.254Z,1.00
2017-12-17T14:22:25.887Z,1.00
2017-12-17T14:24:53.485Z,1.00
2017-12-17T14:27:21.042Z,0.90
2017-12-17T14:29:48.610Z,0.90
2017-12-17T14:32:16.202Z,0.90
2017-12-17T14:34:43.773Z,0.90
2017-12-17T14:37:11.320Z,0.80
2017-12-17T14:39:38.917Z,0.80
2017-12-17T14:42:07.234Z,0.70
2017-12-17T14:44:34.780Z,0.70
2017-12-17T14:47:03.125Z,0.80
2017-12-17T14:49:30.668Z,0.70
2017-12-17T14:51:58.218Z,0.80
2017-12-17T14:54:25.791Z,0.70
2017-12-17T14:56:53.349Z,0.70
2017-12-17T14:59:20.913Z,0.70
2017-12-17T15:01:48.479Z,0.70
2017-12-17T15:04:16.034Z,0.70
2017-12-17T15:06:43.590Z,0.70
2017-12-17T15:09:11.163Z,0.70
2017-12-17T15:11:38.732Z,0.70
2017-12-17T15:14:06.267Z,0.80
2017-12-17T15:16:33.867Z,0.80
2017-12-17T15:19:02.206Z,0.80
2017-12-17T15:21:29.748Z,0.80
2017-12-17T15:23:57.342Z,0.80
2017-12-17T15:26:24.902Z,0.80
2017-12-17T15:28:52.464Z,0.80
2017-12-17T15:31:20.065Z,0.80
2017-12-17T15:33:47.622Z,0.80
2017-12-17T15:36:15.169Z,0.80
2017-12-17T15:38:43.501Z,0.80
2017-12-17T15:41:11.045Z,0.80
2017-12-17T15:43:38.596Z,0.80
2017-12-17T15:46:06.182Z,0.80
2017-12-17T15:48:35.339Z,0.70
2017-12-17T15:51:02.894Z,0.70
2017-12-17T15:53:30.507Z,0.70
2017-12-17T15:55:58.071Z,0.70
2017-12-17T15:58:25.637Z,0.70
2017-12-17T16:00:53.233Z,0.70
2017-12-17T16:03:20.780Z,0.70
2017-12-17T16:05:49.085Z,0.70
2017-12-17T16:08:16.671Z,0.70
2017-12-17T16:10:44.230Z,0.70
2017-12-17T16:13:11.814Z,0.70
2017-12-17T16:15:39.383Z,0.70
2017-12-17T16:18:07.691Z,0.70
2017-12-17T16:20:35.241Z,0.70
2017-12-17T16:23:02.824Z,0.70
2017-12-17T16:25:30.364Z,0.70
2017-12-17T16:27:57.922Z,0.70
2017-12-17T16:30:25.507Z,0.70
2017-12-17T16:32:53.080Z,0.70
2017-12-17T16:35:20.663Z,0.70
2017-12-17T16:37:48.237Z,0.70
2017-12-17T16:40:16.575Z,0.70
2017-12-17T16:42:44.118Z,0.70
2017-12-17T16:45:11.695Z,0.70
2017-12-17T16:47:39.292Z,0.70
2017-12-17T16:50:07.654Z,0.70
2017-12-17T16:52:35.231Z,0.70
2017-12-17T16:55:03.539Z,0.70
2017-12-17T16:57:31.101Z,0.70
2017-12-17T16:59:58.680Z,0.70
2017-12-17T17:02:26.250Z,0.60
2017-12-17T17:04:53.838Z,0.60
2017-12-17T17:07:21.423Z,0.60
2017-12-17T17:09:49.750Z,0.60
2017-12-17T17:12:17.323Z,0.60
2017-12-17T17:14:44.903Z,0.60
2017-12-17T17:17:12.444Z,0.60
2017-12-17T17:19:40.012Z,0.60
2017-12-17T17:22:08.378Z,0.60
2017-12-17T17:24:35.955Z,0.60
2017-12-17T17:27:04.289Z,0.60
2017-12-17T17:29:31.935Z,0.60
2017-12-17T17:31:59.490Z,0.70
2017-12-17T17:34:27.032Z,0.70
2017-12-17T17:36:55.396Z,0.70
2017-12-17T17:39:23.722Z,0.70
2017-12-17T17:41:51.298Z,0.60
2017-12-17T17:44:18.867Z,0.70
2017-12-17T17:46:46.417Z,0.60
2017-12-17T17:49:13.969Z,0.70
2017-12-17T17:51:41.554Z,0.70
2017-12-17T17:54:09.123Z,0.60
2017-12-17T17:56:36.677Z,0.70
2017-12-17T17:59:04.244Z,0.60
2017-12-17T18:01:31.788Z,0.70
2017-12-17T18:03:59.343Z,0.60
2017-12-17T18:06:26.931Z,0.70
2017-12-17T18:08:55.260Z,0.60
2017-12-17T18:11:22.822Z,0.60
2017-12-17T18:13:50.398Z,0.60
2017-12-17T18:16:17.936Z,0.60
2017-12-17T18:18:45.482Z,0.60
2017-12-17T18:21:13.058Z,0.60
2017-12-17T18:23:40.606Z,0.60
2017-12-17T18:26:08.170Z,0.60
2017-12-17T18:28:35.754Z,0.60
2017-12-17T18:31:03.308Z,0.60
2017-12-17T18:33:30.863Z,0.60
2017-12-17T18:35:58.440Z,0.60
2017-12-17T18:38:25.986Z,0.60
2017-12-17T18:40:53.529Z,0.60
2017-12-17T18:43:21.096Z,0.60
2017-12-17T18:45:48.656Z,0.60
2017-12-17T18:48:16.208Z,0.50
2017-12-17T18:50:43.787Z,0.50
2017-12-17T18:53:11.325Z,0.50
2017-12-17T18:55:38.884Z,0.50
2017-12-17T18:58:06.453Z,0.50
2017-12-17T19:00:34.033Z,0.50
2017-12-17T19:03:01.582Z,0.50
2017-12-17T19:05:29.161Z,0.50
2017-12-17T19:07:56.731Z,0.40
2017-12-17T19:10:25.061Z,0.40
2017-12-17T19:12:52.638Z,0.40
2017-12-17T19:15:20.238Z,0.40
2017-12-17T19:17:48.560Z,0.40
2017-12-17T19:20:16.124Z,0.40
2017-12-17T19:22:43.696Z,0.40
2017-12-17T19:25:11.274Z,0.40
2017-12-17T19:27:38.863Z,0.30
2017-12-17T19:30:07.183Z,0.30
2017-12-17T19:32:34.745Z,0.30
2017-12-17T19:35:02.343Z,0.30
2017-12-17T19:37:30.671Z,0.30
2017-12-17T19:39:58.260Z,0.30
2017-12-17T19:42:25.841Z,0.30
2017-12-17T19:44:53.422Z,0.30
2017-12-17T19:47:20.975Z,0.40
2017-12-17T19:49:49.430Z,0.40
2017-12-17T19:52:17.839Z,0.40
2017-12-17T19:54:45.654Z,0.40
2017-12-17T19:57:13.537Z,0.40
2017-12-17T19:59:42.204Z,0.40
2017-12-17T20:02:10.108Z,0.40
2017-12-17T20:04:38.051Z,0.40
2017-12-17T20:07:06.716Z,0.40
2017-12-17T20:09:34.424Z,0.40
2017-12-17T20:12:03.083Z,0.40
2017-12-17T20:14:30.978Z,0.40
2017-12-17T20:16:58.793Z,0.40
2017-12-17T20:19:26.705Z,0.40
2017-12-17T20:21:55.253Z,0.40
2017-12-17T20:24:23.007Z,0.40
2017-12-17T20:26:54.776Z,0.40
2017-12-17T20:29:18.901Z,0.40
2017-12-17T20:31:46.751Z,0.40
2017-12-17T20:34:15.403Z,0.40
2017-12-17T20:36:43.387Z,0.40
2017-12-17T20:39:11.830Z,0.40
2017-12-17T20:41:39.491Z,0.40
2017-12-17T20:44:07.102Z,0.40
2017-12-17T20:46:34.664Z,0.40
2017-12-17T20:49:02.353Z,0.40
2017-12-17T20:51:30.013Z,0.50
2017-12-17T20:53:57.580Z,0.40
2017-12-17T20:56:25.197Z,0.40
2017-12-17T20:58:52.775Z,0.40
2017-12-17T21:01:20.357Z,0.40
2017-12-17T21:03:47.964Z,0.40
2017-12-17T21:06:15.531Z,0.40
2017-12-17T21:08:43.077Z,0.40
2017-12-17T21:11:10.656Z,0.40
2017-12-17T21:13:39.014Z,0.40
2017-12-17T21:16:06.570Z,0.30
2017-12-17T21:18:34.140Z,0.30
2017-12-17T21:21:01.720Z,0.30
2017-12-17T21:23:29.264Z,0.30
2017-12-17T21:25:56.829Z,0.30
2017-12-17T21:28:24.409Z,0.20
2017-12-17T21:30:51.962Z,0.20
2017-12-17T21:33:19.557Z,0.20
2017-12-17T21:35:47.110Z,0.20
2017-12-17T21:38:15.425Z,0.20
2017-12-17T21:40:43.012Z,0.20
2017-12-17T21:43:10.559Z,0.10
2017-12-17T21:45:38.113Z,0.10
2017-12-17T21:48:05.703Z,0.10
2017-12-17T21:50:33.257Z,0.10
2017-12-17T21:53:00.836Z,0.10
2017-12-17T21:55:29.171Z,0.10
2017-12-17T21:57:56.829Z,0.10
2017-12-17T22:00:24.379Z,0.10
2017-12-17T22:02:51.943Z,0.10
2017-12-17T22:05:19.499Z,0.10
2017-12-17T22:07:47.077Z,0.00
2017-12-17T22:10:14.653Z,0.00
2017-12-17T22:12:42.195Z,0.00
2017-12-17T22:15:09.766Z,0.00
2017-12-17T22:17:37.345Z,0.10
2017-12-17T22:20:05.674Z,0.10
2017-12-17T22:22:33.237Z,0.10
2017-12-17T22:25:00.818Z,0.10
2017-12-17T22:27:28.367Z,0.10
2017-12-17T22:29:55.931Z,0.10
2017-12-17T22:32:23.496Z,0.10
2017-12-17T22:34:51.066Z,0.10
2017-12-17T22:37:20.117Z,0.10
2017-12-17T22:39:47.686Z,0.10
2017-12-17T22:42:15.244Z,0.20
2017-12-17T22:44:42.786Z,0.20
2017-12-17T22:47:10.365Z,0.20
2017-12-17T22:49:37.946Z,0.10
2017-12-17T22:52:05.494Z,0.10
2017-12-17T22:54:33.069Z,0.10
2017-12-17T22:57:00.619Z,0.10
2017-12-17T22:59:28.265Z,0.00
2017-12-17T23:01:55.851Z,0.10
2017-12-17T23:04:23.403Z,0.00
2017-12-17T23:06:50.966Z,0.00
2017-12-17T23:09:18.558Z,0.00
2017-12-17T23:11:46.872Z,0.00
2017-12-17T23:14:14.502Z,0.00
2017-12-17T23:16:42.032Z,0.00
2017-12-17T23:19:09.587Z,0.00
2017-12-17T23:21:37.143Z,0.00
2017-12-17T23:24:04.752Z,-0.10
2017-12-17T23:26:32.323Z,-0.10
2017-12-17T23:28:59.869Z,-0.10
2017-12-17T23:31:28.212Z,-0.10
2017-12-17T23:33:55.777Z,-0.10
2017-12-17T23:36:23.369Z,-0.10
2017-12-17T23:38:50.957Z,-0.10
2017-12-17T23:41:18.507Z,-0.20
2017-12-17T23:43:46.061Z,-0.20
2017-12-17T23:46:13.635Z,-0.20
2017-12-17T23:48:41.190Z,-0.20
2017-12-17T23:51:08.746Z,-0.20
2017-12-17T23:53:36.346Z,-0.20
2017-12-17T23:56:03.905Z,-0.20
2017-12-17T23:58:31.466Z,-0.20
